createdAt,value
2023-01-30T00:01:39.200Z,-0.89
2023-01-30T00:04:45.226Z,-1.05
2023-01-30T00:07:52.077Z,-1.08
2023-01-30T00:11:00.814Z,-1.10
2023-01-30T00:14:07.472Z,-1.16
2023-01-30T00:17:13.439Z,-1.14
2023-01-30T00:20:20.884Z,-1.39
2023-01-30T00:23:29.193Z,-1.54
2023-01-30T00:26:38.784Z,-1.59
2023-01-30T00:29:57.598Z,-1.65
2023-01-30T00:33:04.615Z,-1.71
2023-01-30T00:36:13.025Z,-1.71
2023-01-30T00:39:20.112Z,-1.85
2023-01-30T00:42:40.845Z,-1.94
2023-01-30T00:46:02.608Z,-1.97
2023-01-30T00:49:08.500Z,-2.01
2023-01-30T00:52:15.294Z,-2.17
2023-01-30T00:55:21.148Z,-2.22
2023-01-30T00:58:30.504Z,-2.29
2023-01-30T01:01:38.013Z,-2.25
2023-01-30T01:04:46.050Z,-2.33
2023-01-30T01:07:51.959Z,-2.32
2023-01-30T01:10:58.587Z,-2.26
2023-01-30T01:14:09.520Z,-2.21
2023-01-30T01:17:16.209Z,-2.20
2023-01-30T01:20:24.314Z,-2.19
2023-01-30T01:23:31.043Z,-2.18
2023-01-30T01:26:37.113Z,-2.24
2023-01-30T01:29:49.124Z,-2.20
2023-01-30T01:32:54.985Z,-2.35
2023-01-30T01:36:03.783Z,-2.44
2023-01-30T01:39:10.447Z,-2.52
2023-01-30T01:42:14.428Z,-2.49
2023-01-30T01:45:27.658Z,-2.44
2023-01-30T01:48:41.344Z,-2.51
2023-01-30T01:51:58.106Z,-2.41
2023-01-30T01:55:09.942Z,-2.41
2023-01-30T01:58:27.861Z,-2.46
2023-01-30T02:01:38.042Z,-2.56
2023-01-30T02:05:05.364Z,-2.56
2023-01-30T02:08:18.726Z,-2.46
2023-01-30T02:11:34.507Z,-2.39
2023-01-30T02:14:45.920Z,-2.56
2023-01-30T02:17:55.184Z,-2.46
2023-01-30T02:21:50.575Z,-2.38
2023-01-30T02:25:42.658Z,-2.24
2023-01-30T02:29:26.956Z,-2.24
2023-01-30T02:32:46.744Z,-2.39
2023-01-30T02:36:13.076Z,-2.43
2023-01-30T02:39:40.872Z,-2.54
2023-01-30T02:43:30.896Z,-2.62
2023-01-30T02:46:54.257Z,-2.56
2023-01-30T02:50:13.827Z,-2.58
2023-01-30T02:53:20.602Z,-2.71
2023-01-30T02:56:26.731Z,-2.68
2023-01-30T02:59:44.764Z,-2.62
2023-01-30T03:03:30.069Z,-2.51
2023-01-30T03:07:14.289Z,-2.53
2023-01-30T03:10:35.550Z,-2.55
2023-01-30T03:13:58.161Z,-2.52
2023-01-30T03:17:09.507Z,-2.51
2023-01-30T03:20:19.535Z,-2.45
2023-01-30T03:23:28.611Z,-2.42
2023-01-30T03:26:44.704Z,-2.37
2023-01-30T03:29:50.592Z,-2.34
2023-01-30T03:32:57.225Z,-2.39
2023-01-30T03:36:03.719Z,-2.37
2023-01-30T03:39:13.412Z,-2.37
2023-01-30T03:42:19.770Z,-2.39
2023-01-30T03:45:27.206Z,-2.42
2023-01-30T03:48:33.086Z,-2.41
2023-01-30T03:51:40.114Z,-2.37
2023-01-30T03:54:48.441Z,-2.35
2023-01-30T03:57:59.752Z,-2.32
2023-01-30T04:01:09.227Z,-2.39
2023-01-30T04:04:16.104Z,-2.34
2023-01-30T04:07:22.616Z,-2.36
2023-01-30T04:10:33.744Z,-2.39
2023-01-30T04:13:40.093Z,-2.42
2023-01-30T04:16:48.388Z,-2.36
2023-01-30T04:20:20.952Z,-2.28
2023-01-30T04:23:32.100Z,-2.33
2023-01-30T04:26:40.883Z,-2.28
2023-01-30T04:29:47.988Z,-2.22
2023-01-30T04:32:54.095Z,-2.23
2023-01-30T04:36:03.340Z,-2.31
2023-01-30T04:39:09.358Z,-2.29
2023-01-30T04:42:18.607Z,-2.28
2023-01-30T04:45:45.347Z,-2.26
2023-01-30T04:48:52.025Z,-2.31
2023-01-30T04:52:00.299Z,-2.18
2023-01-30T04:55:07.837Z,-2.21
2023-01-30T04:58:16.908Z,-2.19
2023-01-30T05:01:34.825Z,-2.13
2023-01-30T05:04:41.208Z,-2.10
2023-01-30T05:07:47.958Z,-2.09
2023-01-30T05:10:54.183Z,-2.09
2023-01-30T05:14:04.835Z,-2.02
2023-01-30T05:17:11.239Z,-2.12
2023-01-30T05:20:18.413Z,-2.04
2023-01-30T05:23:24.367Z,-1.95
2023-01-30T05:26:31.020Z,-2.00
2023-01-30T05:29:39.657Z,-2.00
2023-01-30T05:32:46.489Z,-2.00
2023-01-30T05:35:53.567Z,-1.93
2023-01-30T05:39:00.546Z,-1.95
2023-01-30T05:42:06.597Z,-1.87
2023-01-30T05:45:16.664Z,-1.79
2023-01-30T05:48:22.970Z,-1.68
2023-01-30T05:51:30.914Z,-1.62
2023-01-30T05:54:38.488Z,-1.56
2023-01-30T05:57:45.273Z,-1.42
2023-01-30T06:00:54.458Z,-1.41
2023-01-30T06:04:04.945Z,-1.39
2023-01-30T06:07:10.956Z,-1.37
2023-01-30T06:10:17.909Z,-1.42
2023-01-30T06:13:23.675Z,-1.41
2023-01-30T06:16:32.929Z,-1.49
2023-01-30T06:19:38.815Z,-1.40
2023-01-30T06:22:45.407Z,-1.45
2023-01-30T06:25:53.839Z,-1.50
2023-01-30T06:29:00.417Z,-1.41
2023-01-30T06:32:09.663Z,-1.43
2023-01-30T06:35:17.033Z,-1.45
2023-01-30T06:38:24.330Z,-1.45
2023-01-30T06:41:32.319Z,-1.36
2023-01-30T06:44:38.150Z,-1.41
2023-01-30T06:47:55.939Z,-1.40
2023-01-30T06:51:01.892Z,-1.42
2023-01-30T06:57:30.237Z,-1.52
2023-01-30T07:00:39.751Z,-1.49
2023-01-30T07:03:48.709Z,-1.57
2023-01-30T07:06:56.117Z,-1.65
2023-01-30T07:10:08.274Z,-1.70
2023-01-30T07:13:15.980Z,-1.79
2023-01-30T07:16:24.172Z,-1.82
2023-01-30T07:19:33.515Z,-1.77
2023-01-30T07:22:39.263Z,-1.78
2023-01-30T07:25:45.953Z,-1.74
2023-01-30T07:28:51.760Z,-1.85
2023-01-30T07:31:58.574Z,-1.85
2023-01-30T07:35:07.944Z,-1.87
2023-01-30T07:38:14.568Z,-1.88
2023-01-30T07:41:20.293Z,-2.02
2023-01-30T07:44:27.245Z,-2.02
2023-01-30T07:47:33.656Z,-2.08
2023-01-30T07:50:43.847Z,-2.07
2023-01-30T07:53:53.652Z,-1.98
2023-01-30T07:57:00.568Z,-1.96
2023-01-30T08:00:10.870Z,-2.03
2023-01-30T08:03:19.981Z,-1.95
2023-01-30T08:06:28.489Z,-1.88
2023-01-30T08:09:35.159Z,-1.80
2023-01-30T08:12:40.951Z,-1.81
2023-01-30T08:15:47.637Z,-1.79
2023-01-30T08:18:53.380Z,-1.73
2023-01-30T08:22:02.855Z,-1.63
2023-01-30T08:25:10.729Z,-1.51
2023-01-30T08:28:17.312Z,-1.23
2023-01-30T08:31:23.062Z,-0.94
2023-01-30T08:34:31.222Z,-0.81
2023-01-30T08:37:39.676Z,-0.84
2023-01-30T08:40:46.911Z,-1.02
2023-01-30T08:43:52.634Z,-1.02
2023-01-30T08:46:59.501Z,-1.11
2023-01-30T08:50:05.415Z,-1.11
2023-01-30T08:53:15.047Z,-1.02
2023-01-30T08:56:20.997Z,-0.91
2023-01-30T08:59:28.105Z,-0.94
2023-01-30T09:02:34.169Z,-1.04
2023-01-30T09:05:40.752Z,-1.05
2023-01-30T09:08:49.599Z,-1.15
2023-01-30T09:11:56.467Z,-1.20
2023-01-30T09:15:02.512Z,-1.08
2023-01-30T09:18:09.702Z,-1.02
2023-01-30T09:21:16.963Z,-0.94
2023-01-30T09:24:28.078Z,-0.87
2023-01-30T09:27:34.244Z,-0.88
2023-01-30T09:30:41.064Z,-0.93
2023-01-30T09:33:46.781Z,-1.05
2023-01-30T09:36:53.670Z,-1.02
2023-01-30T09:40:02.159Z,-0.87
2023-01-30T09:43:41.418Z,-0.86
2023-01-30T09:47:04.053Z,-0.91
2023-01-30T09:50:43.275Z,-0.74
2023-01-30T09:54:18.838Z,-0.63
2023-01-30T09:57:29.603Z,-0.54
2023-01-30T10:00:42.345Z,-0.45
2023-01-30T10:04:09.125Z,-0.60
2023-01-30T10:07:31.536Z,-0.69
2023-01-30T10:11:04.366Z,-0.75
2023-01-30T10:14:54.869Z,-0.80
2023-01-30T10:18:38.854Z,-0.78
2023-01-30T10:21:57.434Z,-0.87
2023-01-30T10:25:28.975Z,-0.99
2023-01-30T10:28:49.772Z,-1.04
2023-01-30T10:32:14.902Z,-1.01
2023-01-30T10:35:27.367Z,-0.92
2023-01-30T10:38:47.238Z,-0.95
2023-01-30T10:42:07.104Z,-0.94
2023-01-30T10:45:22.014Z,-1.06
2023-01-30T10:48:57.459Z,-0.99
2023-01-30T10:52:27.361Z,-0.98
2023-01-30T10:55:43.755Z,-0.95
2023-01-30T10:59:07.736Z,-0.94
2023-01-30T11:02:28.765Z,-0.96
2023-01-30T11:05:51.826Z,-0.93
2023-01-30T11:08:59.793Z,-0.91
2023-01-30T11:12:06.572Z,-0.84
2023-01-30T11:15:16.560Z,-0.84
2023-01-30T11:19:16.795Z,-0.79
2023-01-30T11:21:59.503Z,-0.74
2023-01-30T11:25:14.256Z,-0.67
2023-01-30T11:28:20.449Z,-0.69
2023-01-30T11:31:41.322Z,-0.67
2023-01-30T11:35:04.122Z,-0.70
2023-01-30T11:38:27.008Z,-0.56
2023-01-30T11:41:34.408Z,-0.59
2023-01-30T11:44:44.891Z,-0.58
2023-01-30T11:48:05.073Z,-0.52
2023-01-30T11:51:14.732Z,-0.51
2023-01-30T11:54:33.721Z,-0.51
2023-01-30T11:57:46.635Z,-0.44
2023-01-30T12:00:53.445Z,-0.43
2023-01-30T12:04:03.067Z,-0.44
2023-01-30T12:07:19.543Z,-0.36
2023-01-30T12:10:34.779Z,-0.33
2023-01-30T12:13:45.828Z,-0.31
2023-01-30T12:17:12.505Z,-0.30
2023-01-30T12:20:40.863Z,-0.21
2023-01-30T12:23:59.253Z,-0.14
2023-01-30T12:27:23.992Z,-0.03
2023-01-30T12:30:42.158Z,0.04
2023-01-30T12:33:48.262Z,0.07
2023-01-30T12:37:13.717Z,0.00
2023-01-30T12:40:48.592Z,0.03
2023-01-30T12:44:37.832Z,0.03
2023-01-30T12:48:26.529Z,0.04
2023-01-30T12:52:02.626Z,-0.01
2023-01-30T12:55:31.093Z,-0.14
2023-01-30T12:58:51.337Z,-0.10
2023-01-30T13:02:46.912Z,-0.12
2023-01-30T13:06:10.248Z,-0.09
2023-01-30T13:09:44.415Z,-0.09
2023-01-30T13:13:14.633Z,-0.02
2023-01-30T13:16:39.546Z,-0.06
2023-01-30T13:20:02.151Z,-0.06
2023-01-30T13:23:20.319Z,-0.01
2023-01-30T13:26:36.250Z,-0.01
2023-01-30T13:29:47.107Z,-0.02
2023-01-30T13:33:01.651Z,0.03
2023-01-30T13:36:20.847Z,0.01
2023-01-30T13:39:42.332Z,0.06
2023-01-30T13:42:59.915Z,0.06
2023-01-30T13:46:13.871Z,0.09
2023-01-30T13:49:32.509Z,0.21
2023-01-30T13:52:55.807Z,0.36
2023-01-30T13:56:33.017Z,0.53
2023-01-30T14:00:22.746Z,0.62
2023-01-30T14:03:35.488Z,0.76
2023-01-30T14:06:42.965Z,0.82
2023-01-30T14:10:10.064Z,0.75
2023-01-30T14:13:20.581Z,0.59
2023-01-30T14:16:43.757Z,0.59
2023-01-30T14:20:05.621Z,0.65
2023-01-30T14:23:30.272Z,0.63
2023-01-30T14:27:27.553Z,0.66
2023-01-30T14:30:48.692Z,0.60
2023-01-30T14:33:55.502Z,0.62
2023-01-30T14:37:01.410Z,0.62
2023-01-30T14:40:44.779Z,0.65
2023-01-30T14:43:57.316Z,0.73
2023-01-30T14:47:33.502Z,0.74
2023-01-30T14:50:29.919Z,0.67
2023-01-30T14:53:37.779Z,0.73
2023-01-30T14:56:54.272Z,0.75
2023-01-30T15:00:19.403Z,0.73
2023-01-30T15:03:25.381Z,0.77
2023-01-30T15:06:38.655Z,0.84
2023-01-30T15:09:55.571Z,0.77
2023-01-30T15:13:40.065Z,0.74
2023-01-30T15:17:15.788Z,0.77
2023-01-30T15:20:49.036Z,0.75
2023-01-30T15:24:27.068Z,0.80
2023-01-30T15:27:53.887Z,0.83
2023-01-30T15:31:20.448Z,0.79
2023-01-30T15:34:32.517Z,0.81
2023-01-30T15:37:42.288Z,0.88
2023-01-30T15:40:49.212Z,0.88
2023-01-30T15:44:42.548Z,0.83
2023-01-30T15:48:29.922Z,0.82
2023-01-30T15:51:39.459Z,0.80
2023-01-30T15:54:55.588Z,0.80
2023-01-30T15:58:08.854Z,0.81
2023-01-30T16:01:24.059Z,0.81
2023-01-30T16:04:32.586Z,0.83
2023-01-30T16:07:45.139Z,0.89
2023-01-30T16:10:51.928Z,0.83
2023-01-30T16:13:59.143Z,0.91
2023-01-30T16:17:10.222Z,0.90
2023-01-30T16:20:21.216Z,0.88
2023-01-30T16:23:38.146Z,0.98
2023-01-30T16:26:51.108Z,1.00
2023-01-30T16:30:07.408Z,1.03
2023-01-30T16:33:20.264Z,1.01
2023-01-30T16:36:50.748Z,1.00
2023-01-30T16:40:20.135Z,1.00
2023-01-30T16:43:28.690Z,1.00
2023-01-30T16:46:55.531Z,1.00
2023-01-30T16:50:01.604Z,0.96
2023-01-30T16:53:08.719Z,0.94
2023-01-30T16:56:20.521Z,0.99
2023-01-30T16:59:34.893Z,1.02
2023-01-30T17:02:45.072Z,1.04
2023-01-30T17:05:52.764Z,0.98
2023-01-30T17:09:02.424Z,0.95
2023-01-30T17:12:40.042Z,0.93
2023-01-30T17:15:46.149Z,0.97
2023-01-30T17:18:55.242Z,1.06
2023-01-30T17:22:03.733Z,1.07
2023-01-30T17:25:24.170Z,1.09
2023-01-30T17:28:32.656Z,1.19
2023-01-30T17:31:39.619Z,1.25
2023-01-30T17:34:45.832Z,1.30
2023-01-30T17:38:04.409Z,1.33
2023-01-30T17:41:23.124Z,1.36
2023-01-30T17:44:37.164Z,1.31
2023-01-30T17:47:42.876Z,1.24
2023-01-30T21:56:23.127Z,2.57
